Terminal Aerodrome Forecast
Issued by NWS Portland, OR

Home | Current Version | Previous Version | Text Only | Print | Product List | Glossary On
Versions: 1 2 3 4 5 6 7 8 9 10 11 12 13 14 15
000
FTUS46 KPQR 262334
TAFSLE
TAF
KSLE 262334Z 2700/2724 19009KT P6SM -SHRA SCT020 BKN040
     FM270300 17006KT P6SM VCSH SCT025 BKN050
     FM271200 17006KT P6SM BKN025 OVC050
     FM271800 21010KT P6SM -SHRA SCT025 BKN050=

USA.gov is the U.S. government's official web portal to all federal, state and local government web resources and services.